sensor_id;sensor_type;location;lat;lon;timestamp;pressure;altitude;pressure_sealevel;temperature;humidity
9035;BME280;4552;43.422;24.592;2023-02-14T00:00:04;101419.41;;;4.40;73.75
9035;BME280;4552;43.422;24.592;2023-02-14T00:02:44;101451.38;;;4.64;74.45
9035;BME280;4552;43.422;24.592;2023-02-14T00:05:11;101433.50;;;4.48;73.60
9035;BME280;4552;43.422;24.592;2023-02-14T00:07:38;101455.09;;;4.72;73.55
9035;BME280;4552;43.422;24.592;2023-02-14T00:10:07;101420.03;;;4.58;73.90
9035;BME280;4552;43.422;24.592;2023-02-14T00:12:37;101430.94;;;4.73;73.33
9035;BME280;4552;43.422;24.592;2023-02-14T00:15:04;101419.34;;;4.63;72.98
9035;BME280;4552;43.422;24.592;2023-02-14T00:17:54;101439.59;;;4.73;72.73
9035;BME280;4552;43.422;24.592;2023-02-14T00:20:24;101431.81;;;4.73;72.42
9035;BME280;4552;43.422;24.592;2023-02-14T00:22:52;101447.88;;;4.88;72.15
9035;BME280;4552;43.422;24.592;2023-02-14T00:25:22;101448.88;;;4.92;71.86
9035;BME280;4552;43.422;24.592;2023-02-14T00:27:49;101447.09;;;4.91;71.84
9035;BME280;4552;43.422;24.592;2023-02-14T00:30:17;101456.13;;;5.02;71.90
9035;BME280;4552;43.422;24.592;2023-02-14T00:32:45;101439.34;;;4.92;71.85
9035;BME280;4552;43.422;24.592;2023-02-14T00:35:14;101427.94;;;4.86;72.39
9035;BME280;4552;43.422;24.592;2023-02-14T00:37:41;101444.50;;;4.91;72.75
9035;BME280;4552;43.422;24.592;2023-02-14T00:40:09;101419.88;;;4.78;72.59
9035;BME280;4552;43.422;24.592;2023-02-14T00:42:36;101436.63;;;4.88;72.57
9035;BME280;4552;43.422;24.592;2023-02-14T00:45:05;101452.19;;;4.88;72.83
9035;BME280;4552;43.422;24.592;2023-02-14T00:47:32;101431.03;;;4.76;71.97
9035;BME280;4552;43.422;24.592;2023-02-14T00:50:00;101418.94;;;4.76;71.76
9035;BME280;4552;43.422;24.592;2023-02-14T00:52:38;101401.34;;;4.68;71.67
9035;BME280;4552;43.422;24.592;2023-02-14T00:55:06;101436.47;;;4.83;71.99
9035;BME280;4552;43.422;24.592;2023-02-14T00:57:33;101430.94;;;4.73;72.42
9035;BME280;4552;43.422;24.592;2023-02-14T01:00:00;101441.00;;;4.89;71.93
9035;BME280;4552;43.422;24.592;2023-02-14T01:02:28;101405.09;;;4.76;71.96
9035;BME280;4552;43.422;24.592;2023-02-14T01:04:55;101425.38;;;4.87;72.26
9035;BME280;4552;43.422;24.592;2023-02-14T01:07:23;101398.16;;;4.75;72.50
9035;BME280;4552;43.422;24.592;2023-02-14T01:09:53;101424.78;;;4.96;72.63
9035;BME280;4552;43.422;24.592;2023-02-14T01:12:22;101396.84;;;4.87;72.37
9035;BME280;4552;43.422;24.592;2023-02-14T01:14:50;101383.78;;;4.84;71.83
9035;BME280;4552;43.422;24.592;2023-02-14T01:17:17;101383.88;;;4.87;72.16
9035;BME280;4552;43.422;24.592;2023-02-14T01:19:44;101404.13;;;4.99;72.71
9035;BME280;4552;43.422;24.592;2023-02-14T01:22:13;101380.31;;;4.84;72.77
9035;BME280;4552;43.422;24.592;2023-02-14T01:24:41;101342.56;;;4.67;72.84
9035;BME280;4552;43.422;24.592;2023-02-14T01:27:11;101345.91;;;4.63;73.64
9035;BME280;4552;43.422;24.592;2023-02-14T01:29:38;101354.59;;;4.65;74.06
9035;BME280;4552;43.422;24.592;2023-02-14T01:32:06;101336.25;;;4.59;74.51
9035;BME280;4552;43.422;24.592;2023-02-14T01:34:36;101325.63;;;4.51;74.65
9035;BME280;4552;43.422;24.592;2023-02-14T01:37:03;101356.06;;;4.83;74.51
9035;BME280;4552;43.422;24.592;2023-02-14T01:39:31;101347.25;;;4.78;74.39
9035;BME280;4552;43.422;24.592;2023-02-14T01:41:58;101316.44;;;4.61;74.05
9035;BME280;4552;43.422;24.592;2023-02-14T01:45:00;101360.25;;;4.80;74.47
9035;BME280;4552;43.422;24.592;2023-02-14T01:47:40;101368.69;;;4.73;75.06
9035;BME280;4552;43.422;24.592;2023-02-14T01:50:13;101342.66;;;4.70;75.02
9035;BME280;4552;43.422;24.592;2023-02-14T01:52:43;101326.63;;;4.55;74.83
9035;BME280;4552;43.422;24.592;2023-02-14T01:55:18;101323.81;;;4.49;75.13
9035;BME280;4552;43.422;24.592;2023-02-14T01:57:51;101367.03;;;4.75;75.55
9035;BME280;4552;43.422;24.592;2023-02-14T02:00:23;101367.03;;;4.75;75.09
9035;BME280;4552;43.422;24.592;2023-02-14T02:03:07;101349.41;;;4.65;75.31
9035;BME280;4552;43.422;24.592;2023-02-14T02:05:38;101328.91;;;4.46;75.68
9035;BME280;4552;43.422;24.592;2023-02-14T02:08:07;101358.72;;;4.58;76.30
9035;BME280;4552;43.422;24.592;2023-02-14T02:10:35;101329.53;;;4.39;77.01
9035;BME280;4552;43.422;24.592;2023-02-14T02:13:07;101341.66;;;4.40;77.23
9035;BME280;4552;43.422;24.592;2023-02-14T02:15:41;101362.41;;;4.40;77.41
9035;BME280;4552;43.422;24.592;2023-02-14T02:18:18;101315.66;;;4.12;78.01
9035;BME280;4552;43.422;24.592;2023-02-14T02:21:21;101304.13;;;4.04;78.41
9035;BME280;4552;43.422;24.592;2023-02-14T02:24:17;101343.22;;;4.35;78.31
9035;BME280;4552;43.422;24.592;2023-02-14T02:30:11;101327.72;;;4.36;78.90
9035;BME280;4552;43.422;24.592;2023-02-14T02:36:17;101329.47;;;4.37;79.05
9035;BME280;4552;43.422;24.592;2023-02-14T02:39:01;101314.72;;;4.35;79.48
9035;BME280;4552;43.422;24.592;2023-02-14T02:41:35;101315.44;;;4.31;78.78
9035;BME280;4552;43.422;24.592;2023-02-14T02:44:11;101311.06;;;4.30;79.15
9035;BME280;4552;43.422;24.592;2023-02-14T02:46:48;101318.94;;;4.33;79.01
9035;BME280;4552;43.422;24.592;2023-02-14T02:49:28;101316.25;;;4.30;79.90
9035;BME280;4552;43.422;24.592;2023-02-14T02:52:20;101322.53;;;4.36;79.56
9035;BME280;4552;43.422;24.592;2023-02-14T02:55:11;101289.09;;;4.17;79.62
9035;BME280;4552;43.422;24.592;2023-02-14T02:57:41;101274.63;;;3.99;80.23
9035;BME280;4552;43.422;24.592;2023-02-14T03:00:10;101304.41;;;4.11;80.45
9035;BME280;4552;43.422;24.592;2023-02-14T03:02:41;101297.41;;;4.09;80.39
9035;BME280;4552;43.422;24.592;2023-02-14T03:05:28;101299.16;;;4.10;80.86
9035;BME280;4552;43.422;24.592;2023-02-14T03:07:57;101275.59;;;4.02;80.48
9035;BME280;4552;43.422;24.592;2023-02-14T03:10:27;101293.47;;;4.20;80.34
9035;BME280;4552;43.422;24.592;2023-02-14T03:13:29;101281.97;;;4.12;79.81
9035;BME280;4552;43.422;24.592;2023-02-14T03:16:23;101280.94;;;4.07;80.37
9035;BME280;4552;43.422;24.592;2023-02-14T03:19:05;101302.53;;;4.07;80.47
9035;BME280;4552;43.422;24.592;2023-02-14T03:21:57;101316.28;;;4.05;81.08
9035;BME280;4552;43.422;24.592;2023-02-14T03:24:30;101295.91;;;3.90;81.71
9035;BME280;4552;43.422;24.592;2023-02-14T03:27:05;101303.72;;;3.92;81.99
9035;BME280;4552;43.422;24.592;2023-02-14T03:29:44;101291.09;;;3.76;82.56
9035;BME280;4552;43.422;24.592;2023-02-14T03:32:19;101300.22;;;3.90;82.69
9035;BME280;4552;43.422;24.592;2023-02-14T03:34:54;101275.53;;;3.76;82.88
9035;BME280;4552;43.422;24.592;2023-02-14T03:37:28;101295.03;;;3.90;82.70
9035;BME280;4552;43.422;24.592;2023-02-14T03:40:08;101258.13;;;3.72;82.79
9035;BME280;4552;43.422;24.592;2023-02-14T03:42:40;101293.88;;;3.82;82.84
9035;BME280;4552;43.422;24.592;2023-02-14T03:45:12;101293.03;;;3.83;82.79
9035;BME280;4552;43.422;24.592;2023-02-14T03:47:45;101286.31;;;3.88;82.48
9035;BME280;4552;43.422;24.592;2023-02-14T03:50:18;101264.97;;;3.70;82.84
9035;BME280;4552;43.422;24.592;2023-02-14T03:52:49;101296.69;;;3.88;82.79
9035;BME280;4552;43.422;24.592;2023-02-14T03:55:29;101261.72;;;3.75;83.07
9035;BME280;4552;43.422;24.592;2023-02-14T03:58:13;101274.75;;;3.78;82.91
9035;BME280;4552;43.422;24.592;2023-02-14T04:00:42;101253.63;;;3.66;82.77
9035;BME280;4552;43.422;24.592;2023-02-14T04:03:12;101271.28;;;3.78;82.88
9035;BME280;4552;43.422;24.592;2023-02-14T04:05:44;101260.13;;;3.79;82.72
9035;BME280;4552;43.422;24.592;2023-02-14T04:08:21;101267.84;;;3.77;82.79
9035;BME280;4552;43.422;24.592;2023-02-14T04:10:52;101260.97;;;3.79;82.98
9035;BME280;4552;43.422;24.592;2023-02-14T04:13:20;101264.50;;;3.81;83.04
9035;BME280;4552;43.422;24.592;2023-02-14T04:15:47;101259.34;;;3.81;82.17
9035;BME280;4552;43.422;24.592;2023-02-14T04:18:15;101257.94;;;3.91;82.13
9035;BME280;4552;43.422;24.592;2023-02-14T04:21:02;101269.13;;;3.90;82.31
9035;BME280;4552;43.422;24.592;2023-02-14T04:23:29;101281.47;;;3.97;82.12
9035;BME280;4552;43.422;24.592;2023-02-14T04:26:03;101237.53;;;3.75;82.36
9035;BME280;4552;43.422;24.592;2023-02-14T04:28:32;101232.13;;;3.69;82.30
9035;BME280;4552;43.422;24.592;2023-02-14T04:31:13;101263.63;;;3.81;82.57
9035;BME280;4552;43.422;24.592;2023-02-14T04:33:50;101261.66;;;3.74;82.64
9035;BME280;4552;43.422;24.592;2023-02-14T04:36:19;101282.78;;;3.86;83.19
9035;BME280;4552;43.422;24.592;2023-02-14T04:38:46;101268.91;;;3.84;82.94
9035;BME280;4552;43.422;24.592;2023-02-14T04:41:15;101257.44;;;3.76;83.45
9035;BME280;4552;43.422;24.592;2023-02-14T04:43:47;101270.44;;;3.77;83.59
9035;BME280;4552;43.422;24.592;2023-02-14T04:46:17;101264.88;;;3.67;83.35
9035;BME280;4552;43.422;24.592;2023-02-14T04:48:46;101256.28;;;3.68;83.96
9035;BME280;4552;43.422;24.592;2023-02-14T04:51:13;101256.69;;;3.54;84.00
9035;BME280;4552;43.422;24.592;2023-02-14T04:53:41;101273.19;;;3.58;84.31
9035;BME280;4552;43.422;24.592;2023-02-14T04:56:39;101260.44;;;3.64;84.18
9035;BME280;4552;43.422;24.592;2023-02-14T04:59:07;101276.41;;;3.76;83.54
9035;BME280;4552;43.422;24.592;2023-02-14T05:01:34;101244.28;;;3.70;82.67
9035;BME280;4552;43.422;24.592;2023-02-14T05:04:02;101248.59;;;3.71;82.27
9035;BME280;4552;43.422;24.592;2023-02-14T05:06:31;101276.56;;;3.81;82.86
9035;BME280;4552;43.422;24.592;2023-02-14T05:09:00;101266.94;;;3.77;82.33
9035;BME280;4552;43.422;24.592;2023-02-14T05:11:41;101244.06;;;3.64;82.21
9035;BME280;4552;43.422;24.592;2023-02-14T05:14:09;101275.53;;;3.76;82.80
9035;BME280;4552;43.422;24.592;2023-02-14T05:16:48;101271.91;;;3.71;83.14
9035;BME280;4552;43.422;24.592;2023-02-14T05:19:30;101248.66;;;3.48;83.21
9035;BME280;4552;43.422;24.592;2023-02-14T05:21:57;101261.22;;;3.62;83.53
9035;BME280;4552;43.422;24.592;2023-02-14T05:24:28;101247.34;;;3.59;83.43
9035;BME280;4552;43.422;24.592;2023-02-14T05:26:57;101238.88;;;3.64;82.78
9035;BME280;4552;43.422;24.592;2023-02-14T05:29:24;101249.25;;;3.64;82.59
9035;BME280;4552;43.422;24.592;2023-02-14T05:31:52;101283.09;;;3.70;83.25
9035;BME280;4552;43.422;24.592;2023-02-14T05:34:20;101269.16;;;3.66;83.12
9035;BME280;4552;43.422;24.592;2023-02-14T05:36:47;101280.41;;;3.67;83.26
9035;BME280;4552;43.422;24.592;2023-02-14T05:39:14;101253.63;;;3.42;83.75
9035;BME280;4552;43.422;24.592;2023-02-14T05:41:42;101264.31;;;3.51;84.30
9035;BME280;4552;43.422;24.592;2023-02-14T05:44:11;101280.72;;;3.52;84.71
9035;BME280;4552;43.422;24.592;2023-02-14T05:46:38;101269.47;;;3.51;84.48
9035;BME280;4552;43.422;24.592;2023-02-14T05:49:05;101288.88;;;3.63;84.29
9035;BME280;4552;43.422;24.592;2023-02-14T05:51:32;101294.72;;;3.57;85.03
9035;BME280;4552;43.422;24.592;2023-02-14T05:53:59;101294.03;;;3.63;85.33
9035;BME280;4552;43.422;24.592;2023-02-14T05:56:27;101289.72;;;3.62;85.25
9035;BME280;4552;43.422;24.592;2023-02-14T05:58:54;101272.78;;;3.47;85.34
9035;BME280;4552;43.422;24.592;2023-02-14T06:01:23;101260.66;;;3.45;84.74
9035;BME280;4552;43.422;24.592;2023-02-14T06:03:52;101292.72;;;3.74;84.97
9035;BME280;4552;43.422;24.592;2023-02-14T06:06:27;101296.16;;;3.73;84.61
9035;BME280;4552;43.422;24.592;2023-02-14T06:08:54;101290.19;;;3.75;84.53
9035;BME280;4552;43.422;24.592;2023-02-14T06:11:21;101262.22;;;3.65;84.37
9035;BME280;4552;43.422;24.592;2023-02-14T06:13:48;101285.06;;;3.77;84.62
9035;BME280;4552;43.422;24.592;2023-02-14T06:16:16;101248.03;;;3.54;84.99
9035;BME280;4552;43.422;24.592;2023-02-14T06:18:45;101299.97;;;3.84;84.31
9035;BME280;4552;43.422;24.592;2023-02-14T06:21:12;101304.41;;;3.86;84.24
9035;BME280;4552;43.422;24.592;2023-02-14T06:23:39;101256.38;;;3.71;84.12
9035;BME280;4552;43.422;24.592;2023-02-14T06:26:06;101290.06;;;3.96;83.69
9035;BME280;4552;43.422;24.592;2023-02-14T06:28:34;101270.59;;;3.82;83.54
9035;BME280;4552;43.422;24.592;2023-02-14T06:31:01;101277.72;;;3.89;82.92
9035;BME280;4552;43.422;24.592;2023-02-14T06:33:28;101283.78;;;3.89;83.55
9035;BME280;4552;43.422;24.592;2023-02-14T06:35:56;101267.16;;;3.83;83.27
9035;BME280;4552;43.422;24.592;2023-02-14T06:38:24;101306.78;;;4.05;82.98
9035;BME280;4552;43.422;24.592;2023-02-14T06:40:51;101280.66;;;3.99;83.83
9035;BME280;4552;43.422;24.592;2023-02-14T06:43:18;101274.78;;;4.03;83.43
9035;BME280;4552;43.422;24.592;2023-02-14T06:45:48;101282.22;;;4.19;83.20
9035;BME280;4552;43.422;24.592;2023-02-14T06:48:33;101276.88;;;4.15;83.31
9035;BME280;4552;43.422;24.592;2023-02-14T06:51:17;101283.22;;;4.23;82.67
9035;BME280;4552;43.422;24.592;2023-02-14T06:53:47;101252.63;;;4.13;82.44
9035;BME280;4552;43.422;24.592;2023-02-14T06:56:34;101289.34;;;4.25;82.72
9035;BME280;4552;43.422;24.592;2023-02-14T06:59:02;101278.13;;;4.26;82.12
9035;BME280;4552;43.422;24.592;2023-02-14T07:01:30;101269.41;;;4.24;81.82
9035;BME280;4552;43.422;24.592;2023-02-14T07:04:26;101267.22;;;4.36;80.88
9035;BME280;4552;43.422;24.592;2023-02-14T07:09:46;101312.38;;;4.69;80.37
9035;BME280;4552;43.422;24.592;2023-02-14T07:12:13;101291.38;;;4.60;80.53
9035;BME280;4552;43.422;24.592;2023-02-14T07:14:47;101281.72;;;4.56;80.36
9035;BME280;4552;43.422;24.592;2023-02-14T07:17:25;101313.16;;;4.93;80.14
9035;BME280;4552;43.422;24.592;2023-02-14T07:19:57;101303.34;;;4.83;79.15
9035;BME280;4552;43.422;24.592;2023-02-14T07:22:59;101318.53;;;4.99;78.61
9035;BME280;4552;43.422;24.592;2023-02-14T07:28:47;101303.34;;;4.83;79.33
9035;BME280;4552;43.422;24.592;2023-02-14T07:31:28;101296.19;;;4.76;78.87
9035;BME280;4552;43.422;24.592;2023-02-14T07:34:00;101331.63;;;5.03;78.69
9035;BME280;4552;43.422;24.592;2023-02-14T07:36:37;101297.09;;;5.06;77.79
9035;BME280;4552;43.422;24.592;2023-02-14T07:44:29;101304.53;;;5.22;77.28
9035;BME280;4552;43.422;24.592;2023-02-14T07:46:57;101298.97;;;5.10;78.51
9035;BME280;4552;43.422;24.592;2023-02-14T07:49:29;101289.38;;;5.07;77.84
9035;BME280;4552;43.422;24.592;2023-02-14T07:52:05;101316.28;;;5.11;78.24
9035;BME280;4552;43.422;24.592;2023-02-14T07:54:51;101330.31;;;5.16;78.62
9035;BME280;4552;43.422;24.592;2023-02-14T07:57:26;101293.91;;;4.86;78.64
9035;BME280;4552;43.422;24.592;2023-02-14T08:00:10;101300.91;;;5.17;78.49
9035;BME280;4552;43.422;24.592;2023-02-14T08:02:39;101290.50;;;5.15;77.87
9035;BME280;4552;43.422;24.592;2023-02-14T08:05:06;101313.97;;;5.48;77.90
